createdAt,value
2019-05-05T00:01:15.673Z,69.97
2019-05-05T00:03:48.610Z,67.47
2019-05-05T00:06:17.212Z,62.73
2019-05-05T00:08:45.931Z,66.27
2019-05-05T00:11:25.475Z,69.80
2019-05-05T00:14:07.819Z,60.93
2019-05-05T00:16:46.905Z,65.00
2019-05-05T00:19:29.457Z,67.40
2019-05-05T00:21:46.034Z,63.87
2019-05-05T00:24:15.240Z,62.50
2019-05-05T00:26:45.911Z,64.97
2019-05-05T00:29:14.956Z,66.77
2019-05-05T00:31:45.419Z,65.93
2019-05-05T00:34:15.290Z,62.87
2019-05-05T00:36:44.678Z,61.13
2019-05-05T00:39:15.010Z,61.60
2019-05-05T00:41:44.930Z,55.20
2019-05-05T00:44:15.339Z,57.10
2019-05-05T00:46:49.277Z,55.27
2019-05-05T00:49:18.054Z,52.60
2019-05-05T00:51:46.730Z,55.30
2019-05-05T00:54:15.377Z,57.57
2019-05-05T00:56:45.002Z,65.37
2019-05-05T00:59:15.495Z,61.97
2019-05-05T01:02:02.047Z,64.63
2019-05-05T01:04:32.402Z,60.53
2019-05-05T01:07:01.106Z,63.90
2019-05-05T01:09:30.583Z,68.60
2019-05-05T01:11:59.874Z,68.40
2019-05-05T01:14:28.653Z,72.57
2019-05-05T01:16:57.357Z,69.57
2019-05-05T01:19:25.959Z,65.27
2019-05-05T01:21:54.958Z,65.87
2019-05-05T01:24:24.891Z,63.33
2019-05-05T01:26:55.116Z,64.37
2019-05-05T01:29:25.275Z,65.50
2019-05-05T01:31:55.781Z,67.50
2019-05-05T01:34:32.267Z,65.67
2019-05-05T01:37:02.541Z,67.00
2019-05-05T01:39:35.852Z,66.13
2019-05-05T01:42:06.140Z,65.20
2019-05-05T01:44:35.290Z,59.43
2019-05-05T01:47:05.339Z,62.30
2019-05-05T01:49:34.548Z,53.97
2019-05-05T01:52:04.340Z,55.63
2019-05-05T01:54:35.125Z,56.87
2019-05-05T01:57:05.425Z,60.07
2019-05-05T01:59:35.382Z,60.30
2019-05-05T02:02:04.374Z,52.33
2019-05-05T02:04:34.327Z,54.93
2019-05-05T02:07:05.436Z,58.90
2019-05-05T02:09:35.355Z,54.20
2019-05-05T02:12:05.135Z,55.67
2019-05-05T02:14:35.235Z,51.33
2019-05-05T02:17:05.058Z,50.63
2019-05-05T02:19:35.026Z,49.80
2019-05-05T02:22:05.307Z,49.53
2019-05-05T02:24:35.376Z,45.97
2019-05-05T02:27:05.167Z,51.87
2019-05-05T02:29:47.663Z,54.90
2019-05-05T02:32:25.706Z,52.10
2019-05-05T02:34:56.459Z,55.97
2019-05-05T02:37:25.803Z,55.10
2019-05-05T02:39:58.923Z,56.30
2019-05-05T02:42:27.060Z,58.27
2019-05-05T02:44:58.673Z,54.93
2019-05-05T02:47:37.644Z,57.83
2019-05-05T02:50:07.979Z,53.97
2019-05-05T02:52:39.390Z,53.77
2019-05-05T02:55:08.866Z,60.60
2019-05-05T02:57:37.503Z,59.03
2019-05-05T03:00:08.547Z,59.87
2019-05-05T03:02:37.269Z,53.23
2019-05-05T03:05:06.723Z,55.97
2019-05-05T03:07:36.967Z,56.17
2019-05-05T03:10:07.852Z,61.00
2019-05-05T03:12:39.526Z,58.17
2019-05-05T03:15:10.395Z,55.23
2019-05-05T03:17:39.268Z,52.50
2019-05-05T03:20:08.421Z,59.00
2019-05-05T03:22:37.023Z,56.67
2019-05-05T03:25:07.581Z,58.97
2019-05-05T03:27:36.491Z,60.97
2019-05-05T03:30:06.675Z,54.40
2019-05-05T03:32:36.336Z,56.17
2019-05-05T03:35:05.883Z,54.97
2019-05-05T03:37:34.739Z,50.37
2019-05-05T03:40:05.803Z,49.03
2019-05-05T03:42:36.320Z,54.00
2019-05-05T03:45:14.525Z,50.90
2019-05-05T03:47:44.068Z,51.47
2019-05-05T03:50:14.454Z,51.63
2019-05-05T03:52:43.911Z,54.17
2019-05-05T03:55:13.822Z,50.40
2019-05-05T03:57:44.540Z,54.37
2019-05-05T04:00:15.258Z,55.47
2019-05-05T04:02:48.215Z,56.87
2019-05-05T04:05:18.493Z,55.97
2019-05-05T04:07:47.104Z,52.23
2019-05-05T04:10:15.706Z,49.20
2019-05-05T04:12:44.941Z,46.20
2019-05-05T04:15:14.276Z,52.67
2019-05-05T04:17:44.757Z,49.77
2019-05-05T04:20:21.287Z,43.57
2019-05-05T04:22:49.882Z,45.43
2019-05-05T04:25:18.492Z,41.70
2019-05-05T04:27:47.126Z,44.53
2019-05-05T04:30:15.807Z,47.57
2019-05-05T04:32:44.440Z,44.00
2019-05-05T04:35:14.046Z,45.30
2019-05-05T04:37:43.728Z,42.17
2019-05-05T04:40:14.743Z,38.43
2019-05-05T04:42:44.137Z,38.73
2019-05-05T04:45:14.838Z,37.87
2019-05-05T04:47:48.377Z,37.97
2019-05-05T04:50:34.530Z,39.27
2019-05-05T04:53:05.030Z,37.00
2019-05-05T04:55:34.269Z,36.47
2019-05-05T04:58:04.626Z,34.33
2019-05-05T05:00:34.213Z,30.87
2019-05-05T05:03:07.601Z,33.90
2019-05-05T05:05:53.573Z,35.57
2019-05-05T05:08:24.589Z,31.17
2019-05-05T05:10:54.306Z,32.53
2019-05-05T05:13:24.491Z,32.33
2019-05-05T05:15:53.961Z,31.07
2019-05-05T05:18:24.058Z,31.27
2019-05-05T05:20:54.880Z,34.10
2019-05-05T05:23:24.684Z,37.37
2019-05-05T05:25:54.464Z,39.83
2019-05-05T05:28:23.708Z,37.83
2019-05-05T05:30:54.339Z,36.33
2019-05-05T05:33:23.888Z,34.77
2019-05-05T05:35:54.491Z,33.70
2019-05-05T05:38:24.261Z,33.63
2019-05-05T05:40:57.439Z,36.70
2019-05-05T05:43:36.739Z,34.90
2019-05-05T05:46:07.011Z,31.57
2019-05-05T05:48:40.249Z,31.77
2019-05-05T05:51:10.594Z,29.87
2019-05-05T05:53:39.212Z,31.30
2019-05-05T05:56:07.822Z,29.00
2019-05-05T05:58:36.457Z,30.00
2019-05-05T06:01:05.208Z,27.77
2019-05-05T06:03:34.065Z,29.47
2019-05-05T06:06:04.712Z,27.73
2019-05-05T06:08:34.675Z,29.33
2019-05-05T06:11:04.422Z,27.60
2019-05-05T06:13:33.753Z,26.90
2019-05-05T06:16:04.196Z,30.07
2019-05-05T06:18:34.561Z,27.03
2019-05-05T06:21:04.507Z,28.03
2019-05-05T06:23:34.395Z,27.53
2019-05-05T06:26:06.718Z,29.03
2019-05-05T06:28:34.169Z,25.90
2019-05-05T06:31:04.839Z,26.67
2019-05-05T06:33:34.757Z,23.60
2019-05-05T06:36:03.856Z,23.70
2019-05-05T06:38:34.486Z,24.30
2019-05-05T06:41:10.433Z,26.40
2019-05-05T06:43:44.102Z,24.40
2019-05-05T06:46:17.629Z,27.80
2019-05-05T06:48:46.291Z,24.27
2019-05-05T06:51:14.998Z,26.67
2019-05-05T06:53:43.712Z,26.13
2019-05-05T06:56:14.581Z,25.00
2019-05-05T06:58:44.780Z,25.47
2019-05-05T07:01:14.331Z,27.93
2019-05-05T07:03:43.894Z,31.03
2019-05-05T07:06:14.516Z,26.83
2019-05-05T07:08:43.971Z,28.10
2019-05-05T07:11:14.511Z,28.00
2019-05-05T07:13:44.273Z,29.27
2019-05-05T07:16:14.962Z,24.03
2019-05-05T07:18:44.632Z,27.57
2019-05-05T07:21:14.236Z,27.87
2019-05-05T07:23:44.473Z,24.57
2019-05-05T07:26:14.339Z,24.23
2019-05-05T07:28:44.756Z,25.87
2019-05-05T07:31:14.386Z,22.20
2019-05-05T07:33:43.883Z,26.37
2019-05-05T07:36:26.593Z,22.57
2019-05-05T07:38:55.278Z,23.10
2019-05-05T07:41:23.986Z,23.63
2019-05-05T07:43:54.225Z,22.67
2019-05-05T07:46:24.097Z,22.67
2019-05-05T07:48:54.486Z,22.50
2019-05-05T07:51:24.221Z,23.50
2019-05-05T07:53:54.639Z,24.87
2019-05-05T07:56:23.859Z,22.23
2019-05-05T07:58:54.337Z,19.90
2019-05-05T08:01:24.496Z,22.60
2019-05-05T08:03:53.928Z,21.40
2019-05-05T08:06:23.713Z,22.13
2019-05-05T08:08:54.529Z,25.80
2019-05-05T08:11:23.891Z,26.10
2019-05-05T08:13:54.604Z,25.40
2019-05-05T08:16:24.681Z,22.70
2019-05-05T08:18:54.979Z,22.33
2019-05-05T08:21:24.094Z,27.10
2019-05-05T08:23:54.400Z,24.50
2019-05-05T08:26:41.132Z,25.83
2019-05-05T08:29:29.915Z,19.63
2019-05-05T08:32:13.584Z,22.13
2019-05-05T08:34:55.072Z,23.87
2019-05-05T08:37:14.597Z,20.70
2019-05-05T08:39:44.687Z,23.30
2019-05-05T08:42:14.427Z,20.70
2019-05-05T08:44:44.739Z,21.83
2019-05-05T08:47:13.949Z,25.40
2019-05-05T08:49:44.254Z,21.17
2019-05-05T08:52:14.538Z,23.43
2019-05-05T08:54:44.699Z,23.73
2019-05-05T08:57:14.703Z,20.40
2019-05-05T08:59:44.002Z,21.23
2019-05-05T09:02:14.894Z,19.17
2019-05-05T09:04:44.663Z,17.87
2019-05-05T09:07:13.856Z,16.70
2019-05-05T09:09:44.224Z,20.20
2019-05-05T09:12:13.952Z,15.03
2019-05-05T09:14:44.717Z,10.47
2019-05-05T09:17:13.763Z,9.30
2019-05-05T09:19:44.693Z,8.83
2019-05-05T09:22:13.985Z,12.10
2019-05-05T09:24:47.339Z,10.87
2019-05-05T09:27:20.855Z,16.50
2019-05-05T09:29:49.532Z,20.40
2019-05-05T09:32:18.238Z,23.60
2019-05-05T09:34:47.016Z,17.60
2019-05-05T09:37:15.666Z,28.40
2019-05-05T09:39:44.422Z,24.17
2019-05-05T09:42:14.586Z,20.77
2019-05-05T09:44:46.343Z,12.97
2019-05-05T09:47:15.059Z,11.97
2019-05-05T09:49:44.529Z,10.73
2019-05-05T09:52:13.958Z,9.93
2019-05-05T09:54:43.835Z,10.23
2019-05-05T09:57:14.583Z,9.33
2019-05-05T09:59:44.086Z,8.87
2019-05-05T10:02:13.293Z,9.80
2019-05-05T10:04:43.930Z,7.53
2019-05-05T10:07:13.742Z,9.00
2019-05-05T10:09:43.797Z,10.00
2019-05-05T10:12:12.639Z,8.27
2019-05-05T10:14:41.331Z,8.10
2019-05-05T10:17:09.998Z,8.43
2019-05-05T10:19:38.639Z,9.03
2019-05-05T10:22:07.263Z,11.17
2019-05-05T10:24:40.360Z,12.57
2019-05-05T10:27:09.068Z,19.67
2019-05-05T10:29:37.816Z,19.57
2019-05-05T10:32:06.457Z,20.67
2019-05-05T10:34:35.118Z,15.13
2019-05-05T10:37:04.294Z,13.40
2019-05-05T10:39:34.671Z,12.60
2019-05-05T10:42:04.115Z,11.97
2019-05-05T10:44:34.104Z,15.03
2019-05-05T10:47:04.552Z,14.00
2019-05-05T10:49:33.812Z,15.50
2019-05-05T10:52:03.671Z,14.73
2019-05-05T10:54:41.592Z,14.57
2019-05-05T10:57:03.970Z,14.40
2019-05-05T10:59:34.407Z,16.63
2019-05-05T11:02:04.842Z,14.67
2019-05-05T11:04:33.909Z,14.10
2019-05-05T11:07:04.239Z,14.03
2019-05-05T11:09:34.239Z,14.63
2019-05-05T11:12:02.918Z,16.23
2019-05-05T11:14:33.541Z,14.73
2019-05-05T11:17:04.183Z,14.13
2019-05-05T11:19:33.593Z,15.20
2019-05-05T11:22:02.479Z,15.20
2019-05-05T11:24:31.128Z,15.87
2019-05-05T11:26:59.738Z,11.03
2019-05-05T11:29:28.380Z,10.53
2019-05-05T11:31:58.719Z,9.27
2019-05-05T11:34:27.883Z,9.73
2019-05-05T11:36:58.180Z,10.47
2019-05-05T11:39:26.821Z,11.30
2019-05-05T11:41:55.484Z,10.20
2019-05-05T11:44:24.427Z,11.73
2019-05-05T11:46:54.680Z,9.73
2019-05-05T11:49:24.504Z,9.77
2019-05-05T11:51:54.227Z,10.17
2019-05-05T11:54:24.610Z,8.57
2019-05-05T11:56:53.996Z,11.27
2019-05-05T11:59:23.737Z,11.07
2019-05-05T12:01:54.951Z,11.63
2019-05-05T12:04:23.977Z,8.17
2019-05-05T12:06:52.958Z,9.67
2019-05-05T12:09:24.742Z,10.63
2019-05-05T12:11:54.494Z,9.13
2019-05-05T12:14:27.138Z,10.97
2019-05-05T12:16:55.322Z,10.53
2019-05-05T12:19:24.399Z,10.53
2019-05-05T12:21:54.746Z,8.83
2019-05-05T12:24:25.275Z,9.40
2019-05-05T12:26:55.599Z,10.30
2019-05-05T12:29:24.654Z,11.93
2019-05-05T12:31:53.536Z,11.17
2019-05-05T12:34:23.651Z,10.40
2019-05-05T12:36:53.939Z,9.90
2019-05-05T12:39:22.838Z,9.93
2019-05-05T12:41:51.603Z,11.57
2019-05-05T12:44:23.670Z,11.63
2019-05-05T12:47:10.686Z,13.90
2019-05-05T12:49:39.389Z,12.00
2019-05-05T12:52:08.071Z,13.40
2019-05-05T12:54:36.781Z,19.13
2019-05-05T12:57:13.477Z,16.20
2019-05-05T12:59:40.547Z,17.47
2019-05-05T13:02:09.233Z,17.83
2019-05-05T13:04:37.939Z,17.57
2019-05-05T13:07:08.273Z,17.93
2019-05-05T13:09:36.976Z,16.80
2019-05-05T13:12:05.624Z,17.33
2019-05-05T13:14:34.292Z,14.80
2019-05-05T13:17:03.675Z,15.90
2019-05-05T13:19:34.706Z,15.73
2019-05-05T13:22:05.163Z,16.43
2019-05-05T13:24:44.216Z,16.07
2019-05-05T13:27:20.445Z,17.53
2019-05-05T13:29:49.136Z,18.10
2019-05-05T13:32:17.863Z,15.23
2019-05-05T13:34:46.499Z,15.67
2019-05-05T13:37:15.226Z,16.40
2019-05-05T13:39:44.575Z,12.60
2019-05-05T13:42:13.932Z,14.03
2019-05-05T13:44:56.313Z,14.77
2019-05-05T13:47:24.938Z,12.60
2019-05-05T13:49:55.313Z,12.23
2019-05-05T13:52:24.484Z,12.10
2019-05-05T13:54:54.345Z,10.67
2019-05-05T13:57:24.599Z,11.20
2019-05-05T13:59:54.598Z,10.03
2019-05-05T14:02:24.455Z,12.17
2019-05-05T14:04:54.182Z,12.03
2019-05-05T14:07:23.967Z,11.67
2019-05-05T14:09:54.785Z,10.10
2019-05-05T14:12:24.058Z,8.03
2019-05-05T14:14:54.597Z,8.10
2019-05-05T14:17:23.365Z,8.87
2019-05-05T14:20:02.511Z,10.03
2019-05-05T14:22:24.255Z,10.27
2019-05-05T14:24:54.308Z,8.37
2019-05-05T14:27:23.784Z,7.67
2019-05-05T14:29:56.947Z,9.63
2019-05-05T14:32:27.228Z,7.97
2019-05-05T14:34:57.511Z,8.60
2019-05-05T14:37:44.465Z,8.47
2019-05-05T14:40:14.001Z,7.53
2019-05-05T14:42:43.481Z,8.23
2019-05-05T14:45:15.344Z,7.63
2019-05-05T14:47:44.290Z,6.90
2019-05-05T14:50:13.441Z,7.93
2019-05-05T14:52:43.987Z,10.27
2019-05-05T14:55:14.073Z,8.67
2019-05-05T14:57:44.073Z,7.37
2019-05-05T15:00:14.891Z,8.60
2019-05-05T15:02:43.904Z,7.13
2019-05-05T15:05:30.576Z,7.70
2019-05-05T15:08:17.042Z,8.83
2019-05-05T15:10:50.400Z,7.07
2019-05-05T15:13:21.175Z,7.70
2019-05-05T15:15:49.856Z,7.13
2019-05-05T15:18:18.534Z,7.67
2019-05-05T15:20:47.569Z,6.63
2019-05-05T15:23:16.429Z,6.83
2019-05-05T15:25:45.083Z,7.20
2019-05-05T15:28:13.877Z,6.80
2019-05-05T15:30:44.117Z,7.10
2019-05-05T15:33:13.793Z,6.47
2019-05-05T15:35:46.300Z,6.63
2019-05-05T15:38:13.783Z,6.87
2019-05-05T15:40:44.489Z,8.30
2019-05-05T15:43:14.281Z,6.50
2019-05-05T15:45:43.412Z,5.77
2019-05-05T15:48:13.935Z,7.10
2019-05-05T15:50:43.921Z,8.57
2019-05-05T15:53:14.405Z,7.33
2019-05-05T15:55:43.403Z,8.27
2019-05-05T15:58:14.025Z,7.83
2019-05-05T16:00:44.202Z,5.93
2019-05-05T16:03:13.570Z,7.23
2019-05-05T16:05:43.639Z,8.33
2019-05-05T16:08:14.162Z,6.60
2019-05-05T16:10:46.215Z,7.30
2019-05-05T16:13:13.865Z,6.40
2019-05-05T16:15:44.405Z,7.70
2019-05-05T16:18:23.864Z,7.43
2019-05-05T16:20:54.675Z,6.70
2019-05-05T16:23:25.101Z,7.07
2019-05-05T16:25:54.251Z,7.07
2019-05-05T16:28:24.988Z,9.03
2019-05-05T16:30:56.064Z,5.90
2019-05-05T16:33:24.175Z,7.10
2019-05-05T16:35:52.892Z,7.50
2019-05-05T16:38:21.591Z,6.03
2019-05-05T16:40:50.191Z,6.10
2019-05-05T16:43:18.884Z,7.13
2019-05-05T16:45:51.261Z,6.30
2019-05-05T16:48:19.963Z,7.07
2019-05-05T16:50:48.563Z,6.47
2019-05-05T16:53:34.506Z,6.60
2019-05-05T16:56:05.018Z,6.80
2019-05-05T16:58:33.686Z,6.27
2019-05-05T17:01:03.772Z,6.77
2019-05-05T17:03:37.564Z,7.27
2019-05-05T17:06:06.235Z,7.13
2019-05-05T17:08:34.874Z,6.57
2019-05-05T17:11:03.573Z,7.30
2019-05-05T17:13:51.995Z,7.63
2019-05-05T17:16:22.266Z,9.63
2019-05-05T17:19:04.554Z,9.33
2019-05-05T17:21:37.814Z,10.23
2019-05-05T17:24:06.575Z,7.90
2019-05-05T17:26:35.635Z,6.80
2019-05-05T17:29:04.394Z,8.27
2019-05-05T17:31:33.990Z,6.60
2019-05-05T17:34:04.187Z,6.73
2019-05-05T17:36:33.041Z,6.53
2019-05-05T17:39:01.784Z,7.63
2019-05-05T17:41:50.089Z,7.47
2019-05-05T17:44:20.328Z,7.67
2019-05-05T17:46:50.598Z,6.83
2019-05-05T17:49:39.575Z,8.67
2019-05-05T17:52:09.835Z,9.13
2019-05-05T17:54:40.081Z,14.33
2019-05-05T17:57:08.718Z,6.83
2019-05-05T17:59:37.323Z,7.17
2019-05-05T18:02:05.947Z,6.20
2019-05-05T18:04:34.643Z,8.03
2019-05-05T18:07:21.289Z,7.40
2019-05-05T18:10:06.999Z,8.53
2019-05-05T18:12:37.295Z,8.60
2019-05-05T18:15:13.824Z,6.90
2019-05-05T18:17:43.373Z,5.80
2019-05-05T18:20:12.363Z,7.93
2019-05-05T18:22:43.426Z,6.90
2019-05-05T18:25:12.036Z,8.27
2019-05-05T18:27:40.632Z,7.73
2019-05-05T18:30:09.627Z,9.47
2019-05-05T18:32:38.506Z,9.03
2019-05-05T18:35:07.290Z,8.33
2019-05-05T18:37:35.943Z,7.67
2019-05-05T18:40:06.781Z,7.60
2019-05-05T18:42:35.727Z,7.70
2019-05-05T18:45:09.912Z,6.97
2019-05-05T18:47:38.518Z,7.83
2019-05-05T18:50:07.609Z,6.20
2019-05-05T18:52:36.354Z,7.27
2019-05-05T18:55:06.866Z,6.00
2019-05-05T18:57:35.467Z,7.03
2019-05-05T19:00:06.443Z,5.83
2019-05-05T19:02:48.857Z,7.53
2019-05-05T19:05:35.739Z,6.33
2019-05-05T19:08:06.020Z,5.23
2019-05-05T19:10:34.678Z,4.90
2019-05-05T19:13:03.346Z,4.30
2019-05-05T19:15:32.122Z,5.33
2019-05-05T19:18:00.745Z,6.40
2019-05-05T19:20:35.229Z,5.57
2019-05-05T19:23:05.874Z,4.50
2019-05-05T19:25:35.758Z,5.20
2019-05-05T19:28:04.917Z,6.10
2019-05-05T19:30:35.839Z,7.60
2019-05-05T19:33:04.536Z,5.97
2019-05-05T19:35:43.542Z,6.43
2019-05-05T19:38:04.933Z,6.50
2019-05-05T19:40:34.058Z,5.43
2019-05-05T19:43:04.606Z,5.23
2019-05-05T19:45:34.458Z,5.50
2019-05-05T19:48:05.672Z,7.80
2019-05-05T19:50:35.255Z,7.00
2019-05-05T19:53:04.541Z,10.43
2019-05-05T19:55:36.295Z,5.83
2019-05-05T19:58:05.147Z,7.50
2019-05-05T20:00:34.817Z,6.07
2019-05-05T20:03:05.163Z,5.67
2019-05-05T20:05:34.215Z,5.90
2019-05-05T20:08:04.010Z,5.03
2019-05-05T20:10:32.923Z,5.60
2019-05-05T20:13:01.591Z,5.20
2019-05-05T20:15:33.688Z,4.57
2019-05-05T20:18:04.509Z,4.43
2019-05-05T20:20:33.662Z,3.80
2019-05-05T20:23:04.173Z,5.63
2019-05-05T20:25:34.035Z,4.10
2019-05-05T20:28:03.916Z,3.87
2019-05-05T20:30:34.251Z,3.63
2019-05-05T20:33:04.816Z,4.10
2019-05-05T20:35:38.744Z,5.13
2019-05-05T20:38:09.023Z,3.77
2019-05-05T20:40:39.361Z,4.00
2019-05-05T20:43:08.126Z,4.30
2019-05-05T20:45:36.804Z,4.43
2019-05-05T20:48:05.513Z,3.57
2019-05-05T20:50:34.422Z,4.23
2019-05-05T20:53:04.844Z,7.50
2019-05-05T20:55:34.030Z,3.63
2019-05-05T20:58:04.627Z,3.70
2019-05-05T21:00:34.762Z,4.80
2019-05-05T21:03:04.728Z,4.60
2019-05-05T21:05:34.496Z,5.03
2019-05-05T21:08:04.734Z,3.73
2019-05-05T21:10:34.720Z,3.33
2019-05-05T21:13:03.889Z,4.47
2019-05-05T21:15:35.791Z,4.27
2019-05-05T21:18:05.043Z,3.00
2019-05-05T21:20:34.671Z,3.17
2019-05-05T21:25:57.259Z,3.87
2019-05-05T21:28:25.855Z,4.23
2019-05-05T21:30:54.529Z,3.27
2019-05-05T21:33:23.888Z,2.90
2019-05-05T21:35:54.892Z,4.27
2019-05-05T21:38:23.151Z,3.60
2019-05-05T21:40:51.811Z,3.23
2019-05-05T21:43:20.450Z,3.10
2019-05-05T21:45:49.051Z,5.53
2019-05-05T21:48:17.768Z,4.50
2019-05-05T21:50:51.022Z,3.57
2019-05-05T21:53:24.624Z,3.17
2019-05-05T21:55:55.095Z,4.40
2019-05-05T21:58:31.352Z,4.77
2019-05-05T22:01:04.195Z,2.80
2019-05-05T22:03:36.643Z,4.40
2019-05-05T22:06:05.553Z,3.77
2019-05-05T22:08:35.150Z,3.07
2019-05-05T22:11:04.151Z,3.23
2019-05-05T22:13:36.269Z,2.97
2019-05-05T22:16:04.041Z,2.97
2019-05-05T22:18:32.898Z,3.37
2019-05-05T22:21:14.005Z,4.13
2019-05-05T22:23:44.069Z,3.23
2019-05-05T22:26:14.610Z,6.67
2019-05-05T22:28:44.640Z,3.90
2019-05-05T22:31:14.204Z,6.37
2019-05-05T22:33:44.703Z,4.73
2019-05-05T22:36:14.067Z,4.23
2019-05-05T22:38:44.589Z,3.53
2019-05-05T22:41:15.830Z,3.07
2019-05-05T22:43:44.275Z,3.27
2019-05-05T22:46:14.190Z,3.40
2019-05-05T22:48:44.009Z,3.03
2019-05-05T22:51:14.437Z,2.83
2019-05-05T22:53:44.091Z,3.37
2019-05-05T22:56:14.773Z,2.90
2019-05-05T22:58:43.899Z,3.17
2019-05-05T23:01:13.636Z,3.27
2019-05-05T23:03:50.079Z,4.13
2019-05-05T23:06:24.608Z,3.00
2019-05-05T23:08:54.613Z,4.27
2019-05-05T23:11:25.055Z,3.10
2019-05-05T23:13:55.295Z,3.10
2019-05-05T23:16:33.870Z,3.23
2019-05-05T23:19:03.306Z,2.90
2019-05-05T23:21:36.280Z,3.17
2019-05-05T23:24:23.810Z,3.27
2019-05-05T23:26:54.696Z,3.90
2019-05-05T23:29:24.234Z,3.17
2019-05-05T23:31:53.918Z,4.27
2019-05-05T23:34:24.261Z,4.23
2019-05-05T23:36:53.657Z,3.53
2019-05-05T23:39:24.150Z,3.00
2019-05-05T23:41:54.654Z,3.00
2019-05-05T23:44:23.834Z,3.07
2019-05-05T23:46:53.783Z,3.23
2019-05-05T23:49:24.221Z,4.83
2019-05-05T23:51:53.906Z,3.13
2019-05-05T23:54:24.672Z,3.97
2019-05-05T23:56:53.894Z,3.30
2019-05-05T23:59:24.046Z,4.57
